Time;durP1;ratioP1;P1;durP2;ratioP2;P2;SDS_P1;SDS_P2;PMS_P1;PMS_P2;Temp;Humidity;BMP_temperature;BMP_pressure;BME280_temperature;BME280_humidity;BME280_pressure;Samples;Min_cycle;Max_cycle;Signal;HPM_P1;HPM_P2
2022/09/22 00:01:09;;;;;;;0.93;0.93;;;;;;;;;;5089061;28;20424;-66
2022/09/22 00:03:39;;;;;;;0.90;0.87;;;;;;;;;;5087890;28;20928;-67
2022/09/22 00:06:07;;;;;;;1.27;1.27;;;;;;;;;;5086020;28;20455;-67
2022/09/22 00:08:34;;;;;;;1.17;1.17;;;;;;;;;;5089374;28;20511;-67
2022/09/22 00:11:02;;;;;;;2.70;1.07;;;;;;;;;;5088905;28;20900;-67
2022/09/22 00:13:28;;;;;;;0.70;0.70;;;;;;;;;;5087559;28;20436;-67
2022/09/22 00:15:54;;;;;;;1.70;1.03;;;;;;;;;;5087777;28;20435;-67
2022/09/22 00:18:20;;;;;;;0.77;0.77;;;;;;;;;;5089438;28;20544;-67
2022/09/22 00:20:46;;;;;;;1.17;1.17;;;;;;;;;;5086493;28;20913;-67
2022/09/22 00:23:12;;;;;;;1.30;1.30;;;;;;;;;;5087944;28;20447;-67
2022/09/22 00:25:41;;;;;;;2.40;1.70;;;;;;;;;;5088202;28;20434;-67
2022/09/22 00:28:07;;;;;;;0.93;0.93;;;;;;;;;;5088473;28;20840;-67
2022/09/22 00:30:33;;;;;;;1.20;1.10;;;;;;;;;;5087201;28;20992;-67
2022/09/22 00:32:58;;;;;;;1.17;1.17;;;;;;;;;;5087051;28;20428;-67
2022/09/22 00:35:24;;;;;;;1.93;1.00;;;;;;;;;;5092779;28;20478;-67
2022/09/22 00:37:51;;;;;;;0.90;0.90;;;;;;;;;;5088397;28;20802;-66
2022/09/22 00:40:16;;;;;;;1.13;0.97;;;;;;;;;;5092335;28;20416;-66
2022/09/22 00:42:42;;;;;;;1.13;1.03;;;;;;;;;;5092877;28;20412;-67
2022/09/22 00:45:11;;;;;;;1.67;1.37;;;;;;;;;;5092997;28;20430;-67
2022/09/22 00:47:40;;;;;;;0.97;0.97;;;;;;;;;;5090361;28;20428;-67
2022/09/22 00:50:09;;;;;;;1.93;0.80;;;;;;;;;;5093129;28;20431;-67
2022/09/22 00:52:35;;;;;;;0.50;0.50;;;;;;;;;;5092598;28;20428;-67
2022/09/22 00:55:03;;;;;;;0.90;0.90;;;;;;;;;;5092741;28;20431;-67
2022/09/22 00:57:31;;;;;;;1.00;1.00;;;;;;;;;;5090747;28;20497;-66
2022/09/22 00:59:57;;;;;;;1.10;1.10;;;;;;;;;;5091245;28;20495;-67
2022/09/22 01:02:23;;;;;;;1.23;1.23;;;;;;;;;;5089725;28;20420;-67
2022/09/22 01:04:51;;;;;;;1.40;1.40;;;;;;;;;;5090683;28;20485;-66
2022/09/22 01:07:18;;;;;;;1.07;1.07;;;;;;;;;;5091596;28;21037;-67
2022/09/22 01:09:44;;;;;;;0.83;0.60;;;;;;;;;;5091759;28;20904;-67
2022/09/22 01:12:11;;;;;;;0.90;0.90;;;;;;;;;;5091977;28;20432;-67
2022/09/22 01:14:37;;;;;;;0.70;0.70;;;;;;;;;;5092256;28;20421;-67
2022/09/22 01:17:06;;;;;;;1.07;1.07;;;;;;;;;;5091813;28;21063;-67
2022/09/22 01:19:51;;;;;;;3.33;0.77;;;;;;;;;;5090998;28;20709;-66
2022/09/22 01:22:45;;;;;;;1.27;0.80;;;;;;;;;;5088737;28;20807;-66
2022/09/22 01:25:21;;;;;;;1.53;0.87;;;;;;;;;;5090378;28;20981;-67
2022/09/22 01:28:06;;;;;;;0.83;0.83;;;;;;;;;;5091605;28;20509;-67
2022/09/22 01:30:47;;;;;;;0.60;0.60;;;;;;;;;;5090127;28;20494;-66
2022/09/22 01:33:16;;;;;;;0.80;0.80;;;;;;;;;;5090932;28;20425;-67
2022/09/22 01:35:48;;;;;;;0.77;0.77;;;;;;;;;;5091583;28;20470;-67
2022/09/22 01:38:26;;;;;;;0.90;0.90;;;;;;;;;;5091806;28;20528;-67
2022/09/22 01:40:56;;;;;;;0.80;0.80;;;;;;;;;;5090628;28;20577;-67
2022/09/22 01:43:44;;;;;;;0.80;0.80;;;;;;;;;;5089958;28;20421;-67
2022/09/22 01:46:13;;;;;;;0.93;0.93;;;;;;;;;;5090469;28;20443;-67
2022/09/22 01:48:41;;;;;;;1.70;1.33;;;;;;;;;;5091672;28;20489;-67
2022/09/22 01:51:27;;;;;;;0.80;0.80;;;;;;;;;;5091549;28;20528;-67
2022/09/22 01:54:09;;;;;;;5.50;1.27;;;;;;;;;;5090677;28;20861;-67
2022/09/22 01:56:36;;;;;;;1.00;1.00;;;;;;;;;;5090870;28;20420;-67
2022/09/22 01:59:03;;;;;;;1.27;0.80;;;;;;;;;;5090306;28;20991;-66
2022/09/22 02:01:32;;;;;;;3.37;0.87;;;;;;;;;;5090721;28;20524;-67
2022/09/22 02:04:17;;;;;;;0.90;0.87;;;;;;;;;;5090507;28;20462;-67
2022/09/22 02:06:46;;;;;;;0.97;0.97;;;;;;;;;;5090867;28;20515;-66
2022/09/22 02:09:14;;;;;;;1.03;0.97;;;;;;;;;;5091646;28;20421;-67
2022/09/22 02:11:40;;;;;;;1.00;0.97;;;;;;;;;;5087966;28;20423;-66
2022/09/22 02:14:06;;;;;;;5.03;1.00;;;;;;;;;;5089126;28;20436;-67
2022/09/22 02:16:32;;;;;;;0.80;0.80;;;;;;;;;;5089550;28;20428;-67
2022/09/22 02:19:01;;;;;;;0.70;0.70;;;;;;;;;;5091212;28;20475;-67
2022/09/22 02:21:28;;;;;;;1.20;1.20;;;;;;;;;;5090292;28;20425;-67
2022/09/22 02:23:54;;;;;;;0.97;0.97;;;;;;;;;;5088568;28;20908;-67
2022/09/22 02:26:22;;;;;;;1.03;1.00;;;;;;;;;;5090628;28;20448;-66
2022/09/22 02:28:51;;;;;;;0.97;0.97;;;;;;;;;;5090748;28;20905;-67
2022/09/22 02:31:17;;;;;;;1.07;0.97;;;;;;;;;;5090757;28;20458;-67
2022/09/22 02:33:43;;;;;;;15.20;1.50;;;;;;;;;;5088519;28;20452;-66
2022/09/22 02:36:09;;;;;;;3.00;0.90;;;;;;;;;;5089852;28;20428;-67
2022/09/22 02:38:39;;;;;;;1.33;1.23;;;;;;;;;;5090962;28;20488;-67
2022/09/22 02:41:05;;;;;;;4.13;4.03;;;;;;;;;;5090915;28;20428;-67
2022/09/22 02:43:41;;;;;;;1.57;1.47;;;;;;;;;;5089846;28;20441;-66
2022/09/22 02:46:15;;;;;;;1.00;1.00;;;;;;;;;;5086928;28;20431;-67
2022/09/22 02:48:46;;;;;;;1.10;1.10;;;;;;;;;;5090801;28;20456;-67
2022/09/22 02:51:13;;;;;;;2.30;1.60;;;;;;;;;;5090918;28;20448;-67
2022/09/22 02:53:39;;;;;;;1.30;1.20;;;;;;;;;;5072452;28;20423;-67
2022/09/22 02:56:05;;;;;;;1.93;1.83;;;;;;;;;;5088565;28;20429;-67
2022/09/22 02:58:31;;;;;;;1.50;1.50;;;;;;;;;;5088287;28;20495;-67
2022/09/22 03:00:57;;;;;;;1.60;1.60;;;;;;;;;;5089965;28;21011;-67
2022/09/22 03:03:23;;;;;;;1.80;1.80;;;;;;;;;;5090021;28;20421;-67
2022/09/22 03:05:49;;;;;;;1.67;1.67;;;;;;;;;;5089501;28;20471;-67
2022/09/22 03:08:15;;;;;;;1.33;1.33;;;;;;;;;;5089777;28;20428;-68
2022/09/22 03:10:42;;;;;;;1.10;1.10;;;;;;;;;;5088611;28;20898;-67
2022/09/22 03:13:08;;;;;;;1.47;1.27;;;;;;;;;;5088011;28;20433;-66
2022/09/22 03:15:34;;;;;;;7.53;1.70;;;;;;;;;;5087856;28;20523;-67
2022/09/22 03:18:00;;;;;;;1.70;1.60;;;;;;;;;;5090043;28;20892;-68
2022/09/22 03:20:26;;;;;;;1.67;1.67;;;;;;;;;;5089258;28;20435;-67
2022/09/22 03:22:52;;;;;;;1.30;1.30;;;;;;;;;;5089789;28;20421;-67
2022/09/22 03:25:18;;;;;;;1.43;1.20;;;;;;;;;;5089485;28;20432;-67
2022/09/22 03:27:44;;;;;;;1.80;1.07;;;;;;;;;;5089224;28;20417;-67
2022/09/22 03:30:10;;;;;;;1.33;1.33;;;;;;;;;;5088473;28;20433;-67
2022/09/22 03:32:36;;;;;;;1.63;1.17;;;;;;;;;;5089448;28;20436;-67
2022/09/22 03:35:02;;;;;;;1.87;1.73;;;;;;;;;;5088554;28;20516;-67
2022/09/22 03:37:28;;;;;;;1.57;1.17;;;;;;;;;;5089473;28;20416;-67
2022/09/22 03:39:54;;;;;;;2.10;1.30;;;;;;;;;;5089723;28;20483;-66
2022/09/22 03:42:20;;;;;;;2.93;1.60;;;;;;;;;;5087831;28;20477;-67
2022/09/22 03:44:46;;;;;;;1.60;1.60;;;;;;;;;;5088544;28;20432;-67
2022/09/22 03:47:12;;;;;;;1.20;1.20;;;;;;;;;;5088789;28;20940;-66
2022/09/22 03:49:38;;;;;;;1.50;1.50;;;;;;;;;;5089652;28;20435;-67
2022/09/22 03:52:04;;;;;;;2.20;1.90;;;;;;;;;;5089716;28;20450;-67
2022/09/22 03:54:31;;;;;;;3.10;1.50;;;;;;;;;;5088308;28;20422;-67
2022/09/22 03:56:57;;;;;;;3.07;1.33;;;;;;;;;;5088969;28;20498;-67
2022/09/22 03:59:23;;;;;;;1.40;1.40;;;;;;;;;;5088368;28;20484;-66
2022/09/22 04:01:49;;;;;;;1.10;1.10;;;;;;;;;;5087459;28;20436;-67
2022/09/22 04:04:16;;;;;;;1.30;1.30;;;;;;;;;;5089500;28;20799;-67
2022/09/22 04:06:42;;;;;;;1.07;1.07;;;;;;;;;;5089136;28;20416;-67
2022/09/22 04:09:08;;;;;;;1.30;1.20;;;;;;;;;;5091966;28;20734;-67
2022/09/22 04:11:35;;;;;;;1.00;1.00;;;;;;;;;;5091723;28;20485;-67
2022/09/22 04:14:02;;;;;;;1.30;1.30;;;;;;;;;;5093184;28;20925;-67
2022/09/22 04:16:29;;;;;;;1.10;1.10;;;;;;;;;;5093112;28;21114;-66
2022/09/22 04:18:55;;;;;;;1.47;1.37;;;;;;;;;;5093588;28;20460;-67
2022/09/22 04:21:21;;;;;;;2.20;1.30;;;;;;;;;;5092106;28;20435;-67
2022/09/22 04:23:47;;;;;;;3.23;2.27;;;;;;;;;;5092552;28;20794;-67
2022/09/22 04:26:13;;;;;;;4.27;3.50;;;;;;;;;;5093034;28;20428;-67
2022/09/22 04:28:39;;;;;;;2.23;2.07;;;;;;;;;;5091706;28;20428;-67
2022/09/22 04:31:05;;;;;;;2.20;2.20;;;;;;;;;;5074425;28;20432;-67
2022/09/22 04:33:31;;;;;;;7.20;1.90;;;;;;;;;;5091752;28;20505;-67
2022/09/22 04:35:57;;;;;;;1.90;1.80;;;;;;;;;;5092153;28;20443;-67
2022/09/22 04:38:23;;;;;;;2.23;1.30;;;;;;;;;;5090974;28;20491;-66
2022/09/22 04:40:51;;;;;;;2.03;1.93;;;;;;;;;;5093145;28;20574;-66
2022/09/22 04:43:17;;;;;;;2.50;1.77;;;;;;;;;;5087686;28;20428;-67
2022/09/22 04:45:47;;;;;;;2.10;1.87;;;;;;;;;;5091995;28;20437;-67
2022/09/22 04:48:13;;;;;;;2.33;1.97;;;;;;;;;;5092684;28;20428;-67
2022/09/22 04:50:39;;;;;;;1.97;1.97;;;;;;;;;;5092866;28;20466;-67
2022/09/22 04:53:06;;;;;;;3.90;2.10;;;;;;;;;;5092879;28;20896;-66
2022/09/22 04:55:33;;;;;;;1.80;1.80;;;;;;;;;;5092416;28;20447;-67
2022/09/22 04:57:59;;;;;;;3.70;1.80;;;;;;;;;;5088718;28;20924;-67
2022/09/22 05:00:26;;;;;;;1.40;1.40;;;;;;;;;;5085724;28;20843;-67
2022/09/22 05:02:52;;;;;;;1.67;1.40;;;;;;;;;;5090470;28;20786;-66
2022/09/22 05:05:19;;;;;;;4.73;3.50;;;;;;;;;;5091867;28;20919;-67
2022/09/22 05:07:49;;;;;;;3.10;2.90;;;;;;;;;;5088713;28;20456;-66
2022/09/22 05:10:19;;;;;;;3.70;2.83;;;;;;;;;;5090940;28;20882;-66
2022/09/22 05:12:45;;;;;;;4.23;3.53;;;;;;;;;;5090268;28;20985;-66
2022/09/22 05:15:15;;;;;;;2.40;2.00;;;;;;;;;;5091927;28;20416;-67
2022/09/22 05:17:49;;;;;;;1.80;1.70;;;;;;;;;;5089968;28;20439;-66
2022/09/22 05:20:15;;;;;;;3.50;3.30;;;;;;;;;;5089770;28;20483;-66
2022/09/22 05:22:41;;;;;;;6.10;5.47;;;;;;;;;;5091907;28;20478;-66
2022/09/22 05:25:09;;;;;;;5.23;3.40;;;;;;;;;;5091675;28;20428;-66
2022/09/22 05:27:36;;;;;;;2.10;2.10;;;;;;;;;;5089893;28;20428;-67
2022/09/22 05:30:02;;;;;;;3.37;3.17;;;;;;;;;;5091191;28;20528;-67
2022/09/22 05:32:28;;;;;;;2.93;2.10;;;;;;;;;;5088273;28;20425;-66
2022/09/22 05:34:54;;;;;;;1.43;1.43;;;;;;;;;;5089468;28;20440;-66
2022/09/22 05:37:20;;;;;;;1.27;1.27;;;;;;;;;;5088601;28;20486;-66
2022/09/22 05:39:46;;;;;;;1.40;1.40;;;;;;;;;;5091289;28;20484;-67
2022/09/22 05:42:12;;;;;;;3.07;1.83;;;;;;;;;;5088167;28;20515;-66
2022/09/22 05:44:38;;;;;;;3.50;1.80;;;;;;;;;;5070299;28;20446;-66
2022/09/22 05:47:04;;;;;;;2.83;1.70;;;;;;;;;;5089539;28;20803;-66
2022/09/22 05:49:30;;;;;;;1.77;1.67;;;;;;;;;;5090844;28;20772;-67
2022/09/22 05:51:57;;;;;;;4.73;2.00;;;;;;;;;;5089686;28;20438;-67
2022/09/22 05:54:23;;;;;;;9.30;1.87;;;;;;;;;;5087409;28;20425;-68
2022/09/22 05:56:50;;;;;;;2.10;1.90;;;;;;;;;;5087805;28;20432;-67
2022/09/22 05:59:16;;;;;;;4.53;4.10;;;;;;;;;;5086207;28;20492;-67
2022/09/22 06:01:42;;;;;;;2.17;2.07;;;;;;;;;;5087003;28;20846;-67
2022/09/22 06:04:08;;;;;;;1.60;1.60;;;;;;;;;;5089588;28;20913;-66
2022/09/22 06:06:34;;;;;;;2.13;2.03;;;;;;;;;;5089079;28;20478;-67
2022/09/22 06:09:00;;;;;;;1.70;1.70;;;;;;;;;;5085676;28;20443;-68
2022/09/22 06:11:26;;;;;;;8.80;7.40;;;;;;;;;;5088724;28;20519;-67
2022/09/22 06:13:52;;;;;;;1.70;1.60;;;;;;;;;;5090301;28;20485;-67
2022/09/22 06:16:18;;;;;;;4.53;1.60;;;;;;;;;;5088798;28;20440;-67
2022/09/22 06:18:46;;;;;;;1.30;1.30;;;;;;;;;;5090347;28;20503;-68
2022/09/22 06:21:12;;;;;;;1.70;1.70;;;;;;;;;;5084529;28;20851;-67
2022/09/22 06:23:39;;;;;;;3.03;2.83;;;;;;;;;;5089325;28;20408;-67
2022/09/22 06:26:05;;;;;;;2.10;1.40;;;;;;;;;;5087782;28;20432;-68
2022/09/22 06:28:31;;;;;;;1.37;1.30;;;;;;;;;;5088493;28;20443;-67
2022/09/22 06:31:00;;;;;;;2.30;1.30;;;;;;;;;;5090102;28;21611;-68
2022/09/22 06:33:26;;;;;;;2.07;1.60;;;;;;;;;;5088568;28;21636;-68
2022/09/22 06:35:53;;;;;;;2.30;2.07;;;;;;;;;;5086645;28;20437;-67
2022/09/22 06:38:19;;;;;;;3.03;1.37;;;;;;;;;;5090691;28;20533;-67
2022/09/22 06:40:45;;;;;;;2.23;2.23;;;;;;;;;;5090461;28;20426;-67
2022/09/22 06:43:23;;;;;;;2.00;1.90;;;;;;;;;;5089446;28;20432;-65
2022/09/22 06:45:50;;;;;;;1.57;1.47;;;;;;;;;;5089974;28;20429;-68
2022/09/22 06:48:16;;;;;;;4.30;2.00;;;;;;;;;;5090616;28;20425;-67
2022/09/22 06:50:47;;;;;;;2.50;2.10;;;;;;;;;;5089691;28;20481;-69
2022/09/22 06:53:13;;;;;;;1.90;1.80;;;;;;;;;;5090028;28;20421;-68
2022/09/22 06:55:40;;;;;;;1.90;1.90;;;;;;;;;;5085145;28;21767;-68
2022/09/22 06:58:06;;;;;;;28.03;3.73;;;;;;;;;;5085712;28;20443;-68
2022/09/22 07:00:32;;;;;;;2.77;2.40;;;;;;;;;;5085130;28;20476;-68
2022/09/22 07:03:07;;;;;;;2.70;2.50;;;;;;;;;;5087935;28;20428;-68
2022/09/22 07:05:33;;;;;;;1.60;1.50;;;;;;;;;;5088604;28;20436;-68
2022/09/22 07:07:59;;;;;;;3.77;2.50;;;;;;;;;;5088727;28;20435;-68
2022/09/22 07:10:25;;;;;;;39.60;4.73;;;;;;;;;;5089466;28;20428;-68
2022/09/22 07:12:51;;;;;;;2.40;2.20;;;;;;;;;;5087127;28;20795;-67
2022/09/22 07:15:17;;;;;;;15.83;3.47;;;;;;;;;;5089189;28;20437;-68
2022/09/22 07:17:43;;;;;;;1.43;1.43;;;;;;;;;;5086270;28;20453;-68
2022/09/22 07:20:09;;;;;;;4.10;1.90;;;;;;;;;;5088268;28;20480;-68
2022/09/22 07:22:38;;;;;;;15.13;4.20;;;;;;;;;;5089394;28;20486;-67
2022/09/22 07:25:04;;;;;;;16.90;4.67;;;;;;;;;;5088638;28;20429;-68
2022/09/22 07:27:30;;;;;;;3.90;3.70;;;;;;;;;;5086515;28;20444;-67
2022/09/22 07:29:56;;;;;;;3.27;2.47;;;;;;;;;;5087931;28;20436;-68
2022/09/22 07:32:22;;;;;;;10.23;2.40;;;;;;;;;;5085995;28;20449;-68
2022/09/22 07:34:48;;;;;;;3.13;2.77;;;;;;;;;;5088131;28;20436;-68
2022/09/22 07:37:15;;;;;;;7.83;2.53;;;;;;;;;;5086897;28;20508;-68
2022/09/22 07:39:44;;;;;;;6.90;2.17;;;;;;;;;;5088222;28;20472;-68
2022/09/22 07:42:11;;;;;;;2.63;2.10;;;;;;;;;;5088645;28;20586;-67
2022/09/22 07:48:35;;;;;;;2.37;2.10;;;;;;;;;;5088969;28;20470;-68
2022/09/22 07:50:08;;;;;;;54.33;3.80;;;;;;;;;;5089152;28;20428;-67
2022/09/22 07:52:34;;;;;;;5.93;1.93;;;;;;;;;;5087401;28;20840;-67
2022/09/22 07:55:00;;;;;;;1.90;1.80;;;;;;;;;;5087331;28;20436;-67
2022/09/22 07:57:29;;;;;;;7.10;2.60;;;;;;;;;;5088188;28;20519;-67
2022/09/22 07:59:56;;;;;;;11.83;3.00;;;;;;;;;;5088965;28;20917;-68
2022/09/22 08:02:25;;;;;;;8.17;1.83;;;;;;;;;;5087519;28;20573;-67
2022/09/22 08:04:51;;;;;;;4.30;1.97;;;;;;;;;;5086998;28;20448;-67
2022/09/22 08:07:17;;;;;;;2.30;2.10;;;;;;;;;;5087715;28;20441;-68
2022/09/22 08:09:43;;;;;;;4.53;1.87;;;;;;;;;;5089243;28;20445;-68
2022/09/22 08:12:12;;;;;;;6.60;1.70;;;;;;;;;;5089325;28;20427;-69
2022/09/22 08:14:38;;;;;;;2.40;2.30;;;;;;;;;;5088486;28;20439;-68
2022/09/22 08:17:09;;;;;;;2.87;1.80;;;;;;;;;;5086484;28;20425;-68
2022/09/22 08:19:36;;;;;;;2.00;1.80;;;;;;;;;;5088090;28;20959;-69
2022/09/22 08:22:02;;;;;;;2.27;1.97;;;;;;;;;;5088661;28;20424;-68
2022/09/22 08:24:28;;;;;;;5.60;3.90;;;;;;;;;;5088071;28;20480;-67
2022/09/22 08:26:54;;;;;;;2.57;2.37;;;;;;;;;;5087102;28;20514;-62
2022/09/22 08:29:21;;;;;;;8.30;2.07;;;;;;;;;;5088680;28;20437;-65
2022/09/22 08:31:47;;;;;;;2.00;1.90;;;;;;;;;;5086670;28;20461;-67
2022/09/22 08:34:15;;;;;;;4.03;3.37;;;;;;;;;;5085568;28;20808;-68
2022/09/22 08:36:45;;;;;;;3.57;2.90;;;;;;;;;;5085373;28;20959;-67
2022/09/22 08:39:11;;;;;;;2.53;2.37;;;;;;;;;;5088749;28;21012;-68
2022/09/22 08:41:40;;;;;;;7.70;2.80;;;;;;;;;;5086952;28;20428;-68
2022/09/22 08:44:09;;;;;;;3.73;2.53;;;;;;;;;;5086819;28;20928;-68
2022/09/22 08:46:37;;;;;;;2.90;2.80;;;;;;;;;;5088089;28;20845;-69
2022/09/22 08:52:00;;;;;;;2.60;2.50;;;;;;;;;;5089646;28;20777;-68
2022/09/22 08:54:27;;;;;;;2.63;2.17;;;;;;;;;;5089338;28;20498;-68
2022/09/22 08:57:12;;;;;;;1.73;1.73;;;;;;;;;;5089072;28;20428;-68
2022/09/22 08:59:44;;;;;;;2.83;2.63;;;;;;;;;;5092298;28;20580;-68
2022/09/22 09:02:28;;;;;;;4.43;2.30;;;;;;;;;;5092258;28;20524;-67
2022/09/22 09:05:13;;;;;;;2.43;2.33;;;;;;;;;;5091329;28;20951;-69
2022/09/22 09:07:42;;;;;;;2.17;2.17;;;;;;;;;;5088829;28;20432;-69
2022/09/22 09:10:31;;;;;;;8.33;2.83;;;;;;;;;;5090773;28;22019;-66
2022/09/22 09:13:06;;;;;;;2.60;2.50;;;;;;;;;;5073930;28;20510;-69
2022/09/22 09:15:42;;;;;;;2.60;2.50;;;;;;;;;;5089504;28;21814;-69
2022/09/22 09:18:20;;;;;;;5.90;2.67;;;;;;;;;;5091517;28;20439;-69
2022/09/22 09:20:46;;;;;;;10.50;2.90;;;;;;;;;;5090462;28;20471;-69
2022/09/22 09:23:17;;;;;;;2.30;2.10;;;;;;;;;;5091561;28;20908;-68
2022/09/22 09:25:45;;;;;;;2.90;2.57;;;;;;;;;;5088883;28;20444;-68
2022/09/22 09:28:13;;;;;;;4.20;1.70;;;;;;;;;;5068290;28;20420;-68
2022/09/22 09:30:50;;;;;;;8.53;2.17;;;;;;;;;;5087943;28;20900;-68
2022/09/22 09:33:33;;;;;;;5.10;2.43;;;;;;;;;;5088725;28;20419;-68
2022/09/22 09:35:59;;;;;;;2.43;2.43;;;;;;;;;;5090341;28;20436;-70
2022/09/22 09:38:34;;;;;;;2.20;2.10;;;;;;;;;;5086887;28;20480;-69
2022/09/22 09:41:17;;;;;;;2.10;1.90;;;;;;;;;;5071413;28;20948;-68
2022/09/22 09:43:44;;;;;;;1.57;1.43;;;;;;;;;;5085364;28;20527;-68
2022/09/22 09:46:23;;;;;;;2.70;1.90;;;;;;;;;;5090288;28;20464;-68
2022/09/22 09:49:01;;;;;;;1.70;1.60;;;;;;;;;;5089296;28;20435;-69
2022/09/22 09:51:28;;;;;;;1.40;1.30;;;;;;;;;;5089134;28;20787;-68
2022/09/22 09:53:54;;;;;;;3.30;1.77;;;;;;;;;;5070351;28;20976;-68
2022/09/22 09:56:25;;;;;;;1.70;1.70;;;;;;;;;;5091097;28;20421;-68
2022/09/22 10:01:41;;;;;;;10.60;2.47;;;;;;;;;;5089946;28;20440;-68
2022/09/22 10:04:17;;;;;;;3.37;1.67;;;;;;;;;;5089615;28;20429;-68
2022/09/22 10:06:44;;;;;;;2.13;1.93;;;;;;;;;;5089059;28;20428;-68
2022/09/22 10:09:10;;;;;;;2.00;1.90;;;;;;;;;;5088801;28;20468;-69
2022/09/22 10:11:36;;;;;;;6.93;2.13;;;;;;;;;;5089760;28;20505;-69
2022/09/22 10:14:02;;;;;;;4.10;2.00;;;;;;;;;;5089722;28;20487;-69
2022/09/22 10:16:30;;;;;;;5.00;2.33;;;;;;;;;;5090593;28;20435;-69
2022/09/22 10:19:33;;;;;;;34.20;5.60;;;;;;;;;;5089876;28;20507;-68
2022/09/22 10:22:17;;;;;;;7.77;2.60;;;;;;;;;;5024308;28;20522;-69
2022/09/22 10:24:56;;;;;;;1.43;1.33;;;;;;;;;;5086286;28;20916;-68
2022/09/22 10:27:23;;;;;;;1.57;1.37;;;;;;;;;;5089038;28;20432;-69
2022/09/22 10:30:09;;;;;;;1.97;1.97;;;;;;;;;;5086348;28;20935;-68
2022/09/22 10:32:36;;;;;;;1.47;1.37;;;;;;;;;;5088671;28;20477;-68
2022/09/22 10:35:22;;;;;;;3.53;1.60;;;;;;;;;;5090609;28;20425;-68
2022/09/22 10:37:49;;;;;;;1.50;1.40;;;;;;;;;;5087829;28;20427;-68
2022/09/22 10:40:15;;;;;;;2.97;1.67;;;;;;;;;;5089380;28;20491;-69
2022/09/22 10:42:44;;;;;;;2.40;1.33;;;;;;;;;;5088921;28;20449;-67
2022/09/22 10:45:15;;;;;;;1.77;1.67;;;;;;;;;;5088933;28;20601;-68
2022/09/22 10:48:00;;;;;;;1.13;1.13;;;;;;;;;;5088738;28;20463;-68
2022/09/22 10:50:58;;;;;;;1.17;1.07;;;;;;;;;;5090435;28;20419;-68
2022/09/22 10:53:44;;;;;;;4.73;0.97;;;;;;;;;;5045615;28;20933;-67
2022/09/22 10:56:20;;;;;;;1.07;1.07;;;;;;;;;;5087066;28;20700;-69
2022/09/22 10:58:59;;;;;;;3.87;1.70;;;;;;;;;;5090052;28;20479;-68
2022/09/22 11:01:42;;;;;;;1.10;1.10;;;;;;;;;;5088943;28;20843;-67
2022/09/22 11:04:11;;;;;;;9.10;2.20;;;;;;;;;;5090523;28;20429;-68
2022/09/22 11:12:43;;;;;;;3.70;1.17;;;;;;;;;;5088696;28;20939;-68
2022/09/22 11:15:12;;;;;;;4.17;1.10;;;;;;;;;;5090162;28;20424;-69
2022/09/22 11:17:59;;;;;;;1.00;1.00;;;;;;;;;;5083694;28;20425;-68
2022/09/22 11:20:32;;;;;;;0.80;0.80;;;;;;;;;;5090257;28;20476;-65
2022/09/22 11:23:20;;;;;;;1.33;1.23;;;;;;;;;;5082627;28;20473;-68
2022/09/22 11:26:00;;;;;;;1.60;1.50;;;;;;;;;;5088784;28;20440;-67
2022/09/22 11:28:46;;;;;;;1.17;0.80;;;;;;;;;;5088286;28;20928;-68
2022/09/22 11:31:36;;;;;;;1.33;0.97;;;;;;;;;;5088384;28;20432;-67
2022/09/22 11:34:05;;;;;;;2.23;0.90;;;;;;;;;;5086358;28;20431;-69
2022/09/22 11:36:41;;;;;;;2.40;1.03;;;;;;;;;;5087326;28;20417;-69
2022/09/22 11:39:11;;;;;;;1.73;1.00;;;;;;;;;;5086360;28;20517;-68
2022/09/22 11:41:59;;;;;;;1.30;1.30;;;;;;;;;;5088074;28;20435;-68
2022/09/22 11:44:37;;;;;;;0.90;0.90;;;;;;;;;;5088708;28;20901;-68
2022/09/22 11:47:06;;;;;;;1.80;0.90;;;;;;;;;;5088038;28;20503;-68
2022/09/22 11:49:51;;;;;;;1.70;1.53;;;;;;;;;;5088923;28;20425;-68
2022/09/22 11:52:30;;;;;;;1.13;1.13;;;;;;;;;;5087270;28;20598;-69
2022/09/22 11:55:05;;;;;;;1.80;1.50;;;;;;;;;;5087567;28;20436;-67
2022/09/22 11:57:34;;;;;;;1.20;1.20;;;;;;;;;;5085643;28;20416;-68
2022/09/22 12:00:17;;;;;;;2.97;1.53;;;;;;;;;;5086628;28;20492;-67
2022/09/22 12:02:59;;;;;;;1.20;1.10;;;;;;;;;;5088136;28;20436;-68
2022/09/22 12:05:46;;;;;;;1.03;1.03;;;;;;;;;;5070968;28;20424;-68
2022/09/22 12:08:14;;;;;;;1.23;1.07;;;;;;;;;;5087733;28;20429;-67
2022/09/22 12:10:43;;;;;;;1.30;0.80;;;;;;;;;;5089702;28;20424;-68
2022/09/22 12:13:25;;;;;;;1.27;1.27;;;;;;;;;;5087905;28;20429;-66
2022/09/22 12:15:54;;;;;;;3.70;1.30;;;;;;;;;;5088289;28;20892;-67
2022/09/22 12:18:28;;;;;;;0.63;0.63;;;;;;;;;;5088424;28;20429;-68
2022/09/22 12:21:03;;;;;;;1.43;1.07;;;;;;;;;;5087202;28;20475;-68
2022/09/22 12:23:44;;;;;;;1.03;0.87;;;;;;;;;;5088252;28;20821;-66
2022/09/22 12:26:11;;;;;;;1.00;1.00;;;;;;;;;;5088207;28;20448;-66
2022/09/22 12:28:39;;;;;;;1.40;1.40;;;;;;;;;;5088590;28;20423;-69
2022/09/22 12:31:11;;;;;;;1.10;1.10;;;;;;;;;;5092367;28;20505;-70
2022/09/22 12:33:37;;;;;;;6.20;2.33;;;;;;;;;;5088912;28;20440;-67
2022/09/22 12:36:04;;;;;;;1.80;0.80;;;;;;;;;;5092525;28;20912;-66
2022/09/22 12:38:31;;;;;;;0.90;0.90;;;;;;;;;;5090582;28;20467;-68
2022/09/22 12:40:58;;;;;;;4.17;0.80;;;;;;;;;;5091734;28;20452;-66
2022/09/22 12:43:25;;;;;;;0.60;0.60;;;;;;;;;;5089820;28;20431;-67
2022/09/22 12:45:51;;;;;;;0.67;0.67;;;;;;;;;;5090592;28;20798;-68
2022/09/22 12:48:21;;;;;;;0.80;0.80;;;;;;;;;;5089066;28;20499;-67
2022/09/22 12:50:47;;;;;;;0.70;0.70;;;;;;;;;;5092180;28;20448;-67
2022/09/22 12:53:22;;;;;;;1.80;1.00;;;;;;;;;;5091861;28;20919;-68
2022/09/22 12:55:52;;;;;;;3.77;0.80;;;;;;;;;;5089634;28;20434;-68
2022/09/22 12:58:18;;;;;;;1.20;1.20;;;;;;;;;;5091437;28;20912;-69
2022/09/22 13:00:44;;;;;;;1.20;1.00;;;;;;;;;;5092081;28;20467;-68
2022/09/22 13:03:26;;;;;;;4.83;1.03;;;;;;;;;;5091422;28;20853;-68
2022/09/22 13:05:52;;;;;;;1.00;1.00;;;;;;;;;;5090556;28;20436;-68
2022/09/22 13:08:24;;;;;;;11.43;6.27;;;;;;;;;;5090706;28;20443;-68
2022/09/22 13:10:52;;;;;;;0.80;0.80;;;;;;;;;;5091463;28;20558;-67
2022/09/22 13:13:21;;;;;;;0.80;0.80;;;;;;;;;;5089215;28;20452;-68
2022/09/22 13:15:55;;;;;;;1.17;0.90;;;;;;;;;;5092161;28;20429;-68
2022/09/22 13:18:30;;;;;;;2.33;1.33;;;;;;;;;;5088475;28;20961;-69
2022/09/22 13:20:57;;;;;;;1.07;1.03;;;;;;;;;;5091560;28;20456;-66
2022/09/22 13:23:23;;;;;;;8.13;2.03;;;;;;;;;;5088435;28;20424;-67
2022/09/22 13:25:50;;;;;;;2.00;0.70;;;;;;;;;;5090064;28;20542;-67
2022/09/22 13:28:19;;;;;;;3.20;0.90;;;;;;;;;;5090000;28;20453;-69
2022/09/22 13:30:47;;;;;;;1.00;1.00;;;;;;;;;;5090060;28;20959;-66
2022/09/22 13:33:21;;;;;;;9.60;0.70;;;;;;;;;;5090471;28;21222;-67
2022/09/22 13:35:50;;;;;;;1.13;0.80;;;;;;;;;;5089773;28;20944;-68
2022/09/22 13:38:16;;;;;;;0.97;0.97;;;;;;;;;;5090559;28;20448;-68
2022/09/22 13:40:47;;;;;;;0.80;0.80;;;;;;;;;;5088948;28;20479;-78
2022/09/22 13:43:17;;;;;;;3.70;0.90;;;;;;;;;;5089813;28;20757;-80
2022/09/22 13:45:44;;;;;;;2.00;0.70;;;;;;;;;;5088128;28;20437;-74
2022/09/22 13:48:14;;;;;;;7.93;0.70;;;;;;;;;;5090105;28;20489;-76
2022/09/22 13:50:44;;;;;;;0.83;0.73;;;;;;;;;;5090819;28;20531;-82
2022/09/22 13:53:11;;;;;;;0.73;0.73;;;;;;;;;;5091951;28;20412;-81
2022/09/22 13:55:37;;;;;;;1.70;0.70;;;;;;;;;;5090989;28;20432;-67
2022/09/22 13:58:04;;;;;;;11.17;2.17;;;;;;;;;;5085251;28;20803;-67
2022/09/22 14:00:41;;;;;;;1.27;1.00;;;;;;;;;;5090694;28;20581;-67
2022/09/22 14:03:15;;;;;;;4.77;1.30;;;;;;;;;;5088828;28;20417;-67
2022/09/22 14:05:41;;;;;;;1.30;1.10;;;;;;;;;;5089598;28;20429;-68
2022/09/22 14:08:12;;;;;;;23.67;3.53;;;;;;;;;;5090047;28;20431;-68
2022/09/22 14:10:39;;;;;;;0.87;0.87;;;;;;;;;;5090411;28;20425;-69
2022/09/22 14:13:25;;;;;;;6.90;1.57;;;;;;;;;;5082804;28;20490;-69
2022/09/22 14:15:51;;;;;;;3.30;0.90;;;;;;;;;;5088045;28;20435;-66
2022/09/22 14:18:26;;;;;;;1.07;0.80;;;;;;;;;;5087787;28;20437;-67
2022/09/22 14:20:54;;;;;;;2.10;1.00;;;;;;;;;;5090100;28;20428;-68
2022/09/22 14:23:30;;;;;;;0.70;0.70;;;;;;;;;;5090049;28;20424;-67
2022/09/22 14:25:57;;;;;;;0.77;0.77;;;;;;;;;;5087911;28;20431;-67
2022/09/22 14:28:25;;;;;;;1.77;0.80;;;;;;;;;;5087573;28;20430;-66
2022/09/22 14:30:51;;;;;;;0.80;0.80;;;;;;;;;;5089487;28;20489;-68
2022/09/22 14:33:22;;;;;;;2.30;1.30;;;;;;;;;;5088140;28;20436;-67
2022/09/22 14:35:51;;;;;;;0.73;0.73;;;;;;;;;;5087498;28;20433;-67
2022/09/22 14:38:21;;;;;;;1.10;0.80;;;;;;;;;;5088848;28;20520;-68
2022/09/22 14:40:54;;;;;;;2.53;1.10;;;;;;;;;;5088431;28;20464;-68
2022/09/22 14:43:22;;;;;;;0.70;0.70;;;;;;;;;;5086419;28;20440;-68
2022/09/22 14:45:59;;;;;;;6.53;0.93;;;;;;;;;;5089805;28;20567;-69
2022/09/22 14:48:38;;;;;;;1.03;1.03;;;;;;;;;;5088909;28;20471;-68
2022/09/22 14:51:07;;;;;;;0.80;0.80;;;;;;;;;;5089850;28;20935;-68
2022/09/22 14:53:41;;;;;;;0.80;0.80;;;;;;;;;;5086584;28;20925;-69
2022/09/22 14:56:10;;;;;;;2.20;2.10;;;;;;;;;;5089660;28;20435;-67
2022/09/22 14:58:38;;;;;;;1.00;1.00;;;;;;;;;;5088625;28;21423;-69
2022/09/22 15:03:58;;;;;;;0.90;0.90;;;;;;;;;;5087264;28;20426;-66
2022/09/22 15:06:23;;;;;;;1.00;1.00;;;;;;;;;;5088266;28;20980;-68
2022/09/22 15:08:51;;;;;;;1.13;0.97;;;;;;;;;;5088012;28;20515;-67
2022/09/22 15:11:20;;;;;;;3.03;1.10;;;;;;;;;;5086838;28;20432;-68
2022/09/22 15:13:51;;;;;;;3.23;1.20;;;;;;;;;;5085525;28;20516;-68
2022/09/22 15:16:37;;;;;;;3.30;0.80;;;;;;;;;;5087234;28;20428;-68